Guillo Perez — EA6341 — position and weather

sailwx.info

Track history (hours):
 
Tides and Currents Weather Stations Pressure Air Temp Water Temp Dewpoint Dewpoint Depression Visibility Wind Speed Wind Dir Waves Ship Positions

Guillo Perez

Last reported at 2018-Jan-12 13:33 UTC. Time now 2018-Jan-19 17:36 UTC.
Position N 37°58' W 000°32'.

Length 24 m.

Type: Fishing. MMSI: 224072690.

Date/timePositionNaut miles runAvg speedWind from/ knotsBaromVisibWave heightAir tempDewpointWater temp
2018-Jan-12 13:33N 37°58' W 000°32'0 3.1
2018-Jan-12 13:31N 37°58' W 000°32'9 0.3
2018-Jan-11 09:19N 37°50' W 000°37'0 0.8
2018-Jan-11 08:57N 37°50' W 000°37'1 3.2
2018-Jan-11 08:30N 37°51' W 000°37'2 3.3
2018-Jan-11 07:56N 37°53' W 000°37'2 3.2
2018-Jan-11 07:27N 37°55' W 000°37'4 0.2
2018-Jan-10 11:46N 37°57' W 000°33'10 3.1
2018-Jan-10 08:29N 37°46' W 000°33'5 7.2
2018-Jan-10 07:51N 37°50' W 000°37'1 2.4
2018-Jan-10 07:30N 37°51' W 000°37'1 3.0
2018-Jan-10 07:00N 37°53' W 000°37'2 3.1
2018-Jan-10 06:30N 37°54' W 000°37'2 3.1
2018-Jan-10 06:00N 37°56' W 000°37'2 3.1
2018-Jan-10 05:30N 37°57' W 000°37'4 0.2
2018-Jan-09 10:02N 37°53' W 000°35'0 3.3
2018-Jan-09 10:00N 37°53' W 000°35'4 2.3
2018-Jan-09 08:06N 37°49' W 000°35'110.2
2018-Jan-09 07:59N 37°50' W 000°36'2 3.2
2018-Jan-09 07:30N 37°51' W 000°37'1 2.9
2018-Jan-09 07:00N 37°53' W 000°37'2 3.0
2018-Jan-09 06:25N 37°54' W 000°36'1 3.1
2018-Jan-09 06:00N 37°56' W 000°36'2 3.2
2018-Jan-09 05:26N 37°57' W 000°37'4 0.2
2018-Jan-08 12:18N 37°59' W 000°33'1 3.1
2018-Jan-08 12:00N 37°58' W 000°33'5 3.2
2018-Jan-08 10:31N 37°53' W 000°34'0 3.3
2018-Jan-08 10:30N 37°53' W 000°34'7 3.5
2018-Jan-08 08:29N 37°46' W 000°34'3 5.5
2018-Jan-08 07:58N 37°48' W 000°37'1 2.9
2018-Jan-08 07:30N 37°49' W 000°37'2 3.1
2018-Jan-08 07:00N 37°51' W 000°37'2 3.2
2018-Jan-08 06:30N 37°52' W 000°37'2 3.3
2018-Jan-08 06:00N 37°54' W 000°37'2 3.3
2018-Jan-08 05:30N 37°56' W 000°37'  
2018-Jan-03 08:45N 37°47' W 000°34'3 9.8
2018-Jan-03 08:26N 37°49' W 000°36'0 1.0
2018-Jan-03 08:01N 37°49' W 000°37'2 3.1
2018-Jan-03 07:29N 37°51' W 000°37'2 3.1
2018-Jan-03 07:01N 37°52' W 000°37'3 3.2
2018-Jan-03 06:05N 37°55' W 000°37'0 3.1
2018-Jan-03 06:00N 37°56' W 000°37'  
Track history (hours):
 
Tides and Currents Weather Stations Pressure Air Temp Water Temp Dewpoint Dewpoint Depression Visibility Wind Speed Wind Dir Waves Ship Positions

Guillo Perez

Last reported at 2018-Jan-12 13:33 UTC. Time now 2018-Jan-19 17:36 UTC.
Position N 37°58' W 000°32'.

Length 24 m.

Type: Fishing. MMSI: 224072690.

Date/timePositionNaut miles runAvg speedWind from/ knotsBaromVisibWave heightAir tempDewpointWater temp
2018-Jan-12 13:33N 37°58' W 000°32'0 3.1
2018-Jan-12 13:31N 37°58' W 000°32'9 0.3
2018-Jan-11 09:19N 37°50' W 000°37'0 0.8
2018-Jan-11 08:57N 37°50' W 000°37'1 3.2
2018-Jan-11 08:30N 37°51' W 000°37'2 3.3
2018-Jan-11 07:56N 37°53' W 000°37'2 3.2
2018-Jan-11 07:27N 37°55' W 000°37'4 0.2
2018-Jan-10 11:46N 37°57' W 000°33'10 3.1
2018-Jan-10 08:29N 37°46' W 000°33'5 7.2
2018-Jan-10 07:51N 37°50' W 000°37'1 2.4
2018-Jan-10 07:30N 37°51' W 000°37'1 3.0
2018-Jan-10 07:00N 37°53' W 000°37'2 3.1
2018-Jan-10 06:30N 37°54' W 000°37'2 3.1
2018-Jan-10 06:00N 37°56' W 000°37'2 3.1
2018-Jan-10 05:30N 37°57' W 000°37'4 0.2
2018-Jan-09 10:02N 37°53' W 000°35'0 3.3
2018-Jan-09 10:00N 37°53' W 000°35'4 2.3
2018-Jan-09 08:06N 37°49' W 000°35'110.2
2018-Jan-09 07:59N 37°50' W 000°36'2 3.2
2018-Jan-09 07:30N 37°51' W 000°37'1 2.9
2018-Jan-09 07:00N 37°53' W 000°37'2 3.0
2018-Jan-09 06:25N 37°54' W 000°36'1 3.1
2018-Jan-09 06:00N 37°56' W 000°36'2 3.2
2018-Jan-09 05:26N 37°57' W 000°37'4 0.2
2018-Jan-08 12:18N 37°59' W 000°33'1 3.1
2018-Jan-08 12:00N 37°58' W 000°33'5 3.2
2018-Jan-08 10:31N 37°53' W 000°34'0 3.3
2018-Jan-08 10:30N 37°53' W 000°34'7 3.5
2018-Jan-08 08:29N 37°46' W 000°34'3 5.5
2018-Jan-08 07:58N 37°48' W 000°37'1 2.9
2018-Jan-08 07:30N 37°49' W 000°37'2 3.1
2018-Jan-08 07:00N 37°51' W 000°37'2 3.2
2018-Jan-08 06:30N 37°52' W 000°37'2 3.3
2018-Jan-08 06:00N 37°54' W 000°37'2 3.3
2018-Jan-08 05:30N 37°56' W 000°37'  
2018-Jan-03 08:45N 37°47' W 000°34'3 9.8
2018-Jan-03 08:26N 37°49' W 000°36'0 1.0
2018-Jan-03 08:01N 37°49' W 000°37'2 3.1
2018-Jan-03 07:29N 37°51' W 000°37'2 3.1
2018-Jan-03 07:01N 37°52' W 000°37'3 3.2
2018-Jan-03 06:05N 37°55' W 000°37'0 3.1
2018-Jan-03 06:00N 37°56' W 000°37'  

Dump ship's entire track history